sensor_id;sensor_type;location;lat;lon;timestamp;P1;durP1;ratioP1;P2;durP2;ratioP2
53056;SDS011;38940;50.096;4.012;2023-06-01T00:02:31;12.02;;;3.13;;
53056;SDS011;38940;50.096;4.012;2023-06-01T00:04:57;11.45;;;3.10;;
53056;SDS011;38940;50.096;4.012;2023-06-01T00:07:23;10.60;;;2.90;;
53056;SDS011;38940;50.096;4.012;2023-06-01T00:09:49;8.90;;;3.20;;
53056;SDS011;38940;50.096;4.012;2023-06-01T00:12:15;13.93;;;3.13;;
53056;SDS011;38940;50.096;4.012;2023-06-01T00:14:41;7.50;;;3.00;;
53056;SDS011;38940;50.096;4.012;2023-06-01T00:17:07;11.05;;;3.13;;
53056;SDS011;38940;50.096;4.012;2023-06-01T00:19:34;9.55;;;2.90;;
53056;SDS011;38940;50.096;4.012;2023-06-01T00:22:00;6.80;;;2.92;;
53056;SDS011;38940;50.096;4.012;2023-06-01T00:24:26;8.40;;;2.90;;
53056;SDS011;38940;50.096;4.012;2023-06-01T00:26:52;8.47;;;3.10;;
53056;SDS011;38940;50.096;4.012;2023-06-01T00:29:18;9.02;;;3.10;;
53056;SDS011;38940;50.096;4.012;2023-06-01T00:31:44;12.65;;;3.47;;
53056;SDS011;38940;50.096;4.012;2023-06-01T00:34:10;7.75;;;2.95;;
53056;SDS011;38940;50.096;4.012;2023-06-01T00:36:36;8.65;;;3.30;;
53056;SDS011;38940;50.096;4.012;2023-06-01T00:39:02;8.48;;;3.13;;
53056;SDS011;38940;50.096;4.012;2023-06-01T00:41:29;13.88;;;3.63;;
53056;SDS011;38940;50.096;4.012;2023-06-01T00:43:55;9.85;;;3.30;;
53056;SDS011;38940;50.096;4.012;2023-06-01T00:46:21;9.93;;;3.30;;
53056;SDS011;38940;50.096;4.012;2023-06-01T00:48:48;11.52;;;3.60;;
53056;SDS011;38940;50.096;4.012;2023-06-01T00:51:14;14.05;;;3.88;;
53056;SDS011;38940;50.096;4.012;2023-06-01T00:53:40;9.00;;;3.70;;
53056;SDS011;38940;50.096;4.012;2023-06-01T00:56:07;8.50;;;3.63;;
53056;SDS011;38940;50.096;4.012;2023-06-01T00:58:33;10.93;;;4.47;;
53056;SDS011;38940;50.096;4.012;2023-06-01T01:00:59;8.73;;;3.70;;
53056;SDS011;38940;50.096;4.012;2023-06-01T01:03:26;11.77;;;4.20;;
53056;SDS011;38940;50.096;4.012;2023-06-01T01:05:58;13.00;;;4.55;;
53056;SDS011;38940;50.096;4.012;2023-06-01T01:08:28;15.70;;;4.25;;
53056;SDS011;38940;50.096;4.012;2023-06-01T01:13:43;12.93;;;4.38;;
53056;SDS011;38940;50.096;4.012;2023-06-01T01:16:17;13.70;;;4.20;;
53056;SDS011;38940;50.096;4.012;2023-06-01T01:18:46;12.80;;;4.75;;
53056;SDS011;38940;50.096;4.012;2023-06-01T01:21:19;9.98;;;4.40;;
53056;SDS011;38940;50.096;4.012;2023-06-01T01:29:00;13.07;;;4.72;;
53056;SDS011;38940;50.096;4.012;2023-06-01T01:31:26;13.77;;;5.03;;
53056;SDS011;38940;50.096;4.012;2023-06-01T01:33:54;15.50;;;5.35;;
53056;SDS011;38940;50.096;4.012;2023-06-01T01:36:20;9.32;;;4.43;;
53056;SDS011;38940;50.096;4.012;2023-06-01T01:38:47;14.77;;;4.85;;
53056;SDS011;38940;50.096;4.012;2023-06-01T01:41:13;15.20;;;5.30;;
53056;SDS011;38940;50.096;4.012;2023-06-01T01:43:39;15.75;;;5.05;;
53056;SDS011;38940;50.096;4.012;2023-06-01T01:48:34;12.47;;;4.83;;
53056;SDS011;38940;50.096;4.012;2023-06-01T01:51:03;12.80;;;4.95;;
53056;SDS011;38940;50.096;4.012;2023-06-01T01:53:31;15.75;;;5.50;;
53056;SDS011;38940;50.096;4.012;2023-06-01T01:55:58;13.35;;;5.32;;
53056;SDS011;38940;50.096;4.012;2023-06-01T01:58:25;12.23;;;4.85;;
53056;SDS011;38940;50.096;4.012;2023-06-01T02:00:52;15.10;;;5.20;;
53056;SDS011;38940;50.096;4.012;2023-06-01T02:03:18;17.75;;;5.63;;
53056;SDS011;38940;50.096;4.012;2023-06-01T02:05:45;14.82;;;5.50;;
53056;SDS011;38940;50.096;4.012;2023-06-01T02:08:11;17.23;;;5.88;;
53056;SDS011;38940;50.096;4.012;2023-06-01T02:10:37;17.80;;;6.00;;
53056;SDS011;38940;50.096;4.012;2023-06-01T02:13:03;16.90;;;5.80;;
53056;SDS011;38940;50.096;4.012;2023-06-01T02:15:29;17.03;;;6.10;;
53056;SDS011;38940;50.096;4.012;2023-06-01T02:17:55;15.57;;;6.15;;
53056;SDS011;38940;50.096;4.012;2023-06-01T02:20:21;18.25;;;5.57;;
53056;SDS011;38940;50.096;4.012;2023-06-01T02:22:47;15.60;;;6.18;;
53056;SDS011;38940;50.096;4.012;2023-06-01T02:25:13;14.15;;;5.80;;
53056;SDS011;38940;50.096;4.012;2023-06-01T02:27:39;13.73;;;5.60;;
53056;SDS011;38940;50.096;4.012;2023-06-01T02:30:05;16.77;;;6.00;;
53056;SDS011;38940;50.096;4.012;2023-06-01T02:32:32;13.55;;;5.95;;
53056;SDS011;38940;50.096;4.012;2023-06-01T02:34:59;14.65;;;5.80;;
53056;SDS011;38940;50.096;4.012;2023-06-01T02:37:26;17.00;;;5.68;;
53056;SDS011;38940;50.096;4.012;2023-06-01T02:39:51;9.90;;;5.37;;
53056;SDS011;38940;50.096;4.012;2023-06-01T02:42:17;14.63;;;5.55;;
53056;SDS011;38940;50.096;4.012;2023-06-01T02:44:43;11.20;;;5.28;;
53056;SDS011;38940;50.096;4.012;2023-06-01T02:47:10;15.52;;;5.53;;
53056;SDS011;38940;50.096;4.012;2023-06-01T02:49:36;12.80;;;5.83;;
53056;SDS011;38940;50.096;4.012;2023-06-01T02:52:02;13.45;;;5.95;;
53056;SDS011;38940;50.096;4.012;2023-06-01T02:54:28;14.40;;;5.70;;
53056;SDS011;38940;50.096;4.012;2023-06-01T02:56:54;13.73;;;5.57;;
53056;SDS011;38940;50.096;4.012;2023-06-01T02:59:20;12.30;;;5.20;;
53056;SDS011;38940;50.096;4.012;2023-06-01T03:01:46;10.52;;;5.07;;
53056;SDS011;38940;50.096;4.012;2023-06-01T03:04:13;14.23;;;5.90;;
53056;SDS011;38940;50.096;4.012;2023-06-01T03:06:40;13.20;;;5.80;;
53056;SDS011;38940;50.096;4.012;2023-06-01T03:09:06;13.52;;;5.70;;
53056;SDS011;38940;50.096;4.012;2023-06-01T03:11:39;12.40;;;5.88;;
53056;SDS011;38940;50.096;4.012;2023-06-01T03:14:05;14.38;;;5.55;;
53056;SDS011;38940;50.096;4.012;2023-06-01T03:16:31;15.17;;;5.50;;
53056;SDS011;38940;50.096;4.012;2023-06-01T03:18:57;11.30;;;5.55;;
53056;SDS011;38940;50.096;4.012;2023-06-01T03:21:23;15.70;;;5.45;;
53056;SDS011;38940;50.096;4.012;2023-06-01T03:23:49;10.77;;;5.68;;
53056;SDS011;38940;50.096;4.012;2023-06-01T03:26:15;13.02;;;5.85;;
53056;SDS011;38940;50.096;4.012;2023-06-01T03:28:43;13.27;;;5.70;;
53056;SDS011;38940;50.096;4.012;2023-06-01T03:31:10;12.17;;;5.57;;
53056;SDS011;38940;50.096;4.012;2023-06-01T03:33:36;12.67;;;5.70;;
53056;SDS011;38940;50.096;4.012;2023-06-01T03:36:03;15.80;;;5.60;;
53056;SDS011;38940;50.096;4.012;2023-06-01T03:38:29;15.45;;;5.75;;
53056;SDS011;38940;50.096;4.012;2023-06-01T03:40:55;11.00;;;5.50;;
53056;SDS011;38940;50.096;4.012;2023-06-01T03:43:21;17.02;;;5.80;;
53056;SDS011;38940;50.096;4.012;2023-06-01T03:45:47;13.77;;;6.10;;
53056;SDS011;38940;50.096;4.012;2023-06-01T03:48:13;13.67;;;5.93;;
53056;SDS011;38940;50.096;4.012;2023-06-01T03:50:39;13.35;;;5.68;;
53056;SDS011;38940;50.096;4.012;2023-06-01T03:53:05;12.85;;;5.22;;
53056;SDS011;38940;50.096;4.012;2023-06-01T03:55:31;15.63;;;5.80;;
53056;SDS011;38940;50.096;4.012;2023-06-01T03:57:58;14.68;;;5.60;;
53056;SDS011;38940;50.096;4.012;2023-06-01T04:00:24;9.47;;;5.37;;
53056;SDS011;38940;50.096;4.012;2023-06-01T04:02:59;12.32;;;5.45;;
53056;SDS011;38940;50.096;4.012;2023-06-01T04:05:26;11.70;;;5.80;;
53056;SDS011;38940;50.096;4.012;2023-06-01T04:07:53;14.35;;;5.80;;
53056;SDS011;38940;50.096;4.012;2023-06-01T04:10:19;11.30;;;5.40;;
53056;SDS011;38940;50.096;4.012;2023-06-01T04:12:46;10.10;;;5.35;;
53056;SDS011;38940;50.096;4.012;2023-06-01T04:15:14;12.77;;;5.80;;
53056;SDS011;38940;50.096;4.012;2023-06-01T04:17:41;13.63;;;5.10;;
53056;SDS011;38940;50.096;4.012;2023-06-01T04:20:09;13.20;;;5.55;;
53056;SDS011;38940;50.096;4.012;2023-06-01T04:22:38;10.95;;;5.40;;
53056;SDS011;38940;50.096;4.012;2023-06-01T04:25:05;10.95;;;5.30;;
53056;SDS011;38940;50.096;4.012;2023-06-01T04:27:33;15.57;;;5.85;;
53056;SDS011;38940;50.096;4.012;2023-06-01T04:30:02;10.10;;;5.53;;
53056;SDS011;38940;50.096;4.012;2023-06-01T04:32:28;14.52;;;5.25;;
53056;SDS011;38940;50.096;4.012;2023-06-01T04:34:55;11.30;;;5.20;;
53056;SDS011;38940;50.096;4.012;2023-06-01T04:37:21;11.10;;;5.33;;
53056;SDS011;38940;50.096;4.012;2023-06-01T04:39:47;13.93;;;5.15;;
53056;SDS011;38940;50.096;4.012;2023-06-01T04:42:16;12.25;;;5.20;;
53056;SDS011;38940;50.096;4.012;2023-06-01T04:44:43;11.27;;;5.50;;
53056;SDS011;38940;50.096;4.012;2023-06-01T04:47:11;14.70;;;5.50;;
53056;SDS011;38940;50.096;4.012;2023-06-01T04:49:39;13.13;;;5.50;;
53056;SDS011;38940;50.096;4.012;2023-06-01T04:52:06;12.23;;;5.00;;
53056;SDS011;38940;50.096;4.012;2023-06-01T04:54:32;10.23;;;5.17;;
53056;SDS011;38940;50.096;4.012;2023-06-01T04:56:58;14.70;;;5.72;;
53056;SDS011;38940;50.096;4.012;2023-06-01T04:59:24;11.25;;;5.15;;
53056;SDS011;38940;50.096;4.012;2023-06-01T05:01:50;12.10;;;5.75;;
53056;SDS011;38940;50.096;4.012;2023-06-01T05:04:16;12.70;;;5.57;;
53056;SDS011;38940;50.096;4.012;2023-06-01T05:06:42;12.73;;;5.47;;
53056;SDS011;38940;50.096;4.012;2023-06-01T05:09:08;11.20;;;5.53;;
53056;SDS011;38940;50.096;4.012;2023-06-01T05:11:34;14.02;;;5.90;;
53056;SDS011;38940;50.096;4.012;2023-06-01T05:14:00;9.52;;;5.03;;
53056;SDS011;38940;50.096;4.012;2023-06-01T05:16:27;15.52;;;5.80;;
53056;SDS011;38940;50.096;4.012;2023-06-01T05:18:54;10.50;;;5.20;;
53056;SDS011;38940;50.096;4.012;2023-06-01T05:21:20;10.30;;;5.47;;
53056;SDS011;38940;50.096;4.012;2023-06-01T05:23:46;11.55;;;5.70;;
53056;SDS011;38940;50.096;4.012;2023-06-01T05:26:13;12.53;;;5.63;;
53056;SDS011;38940;50.096;4.012;2023-06-01T05:28:39;14.07;;;6.10;;
53056;SDS011;38940;50.096;4.012;2023-06-01T05:31:05;11.75;;;5.93;;
53056;SDS011;38940;50.096;4.012;2023-06-01T05:33:31;12.82;;;5.63;;
53056;SDS011;38940;50.096;4.012;2023-06-01T05:35:57;14.30;;;5.82;;
53056;SDS011;38940;50.096;4.012;2023-06-01T05:38:23;11.13;;;5.78;;
53056;SDS011;38940;50.096;4.012;2023-06-01T05:40:49;14.27;;;6.38;;
53056;SDS011;38940;50.096;4.012;2023-06-01T05:43:17;11.68;;;5.80;;
53056;SDS011;38940;50.096;4.012;2023-06-01T05:45:43;13.60;;;6.15;;
53056;SDS011;38940;50.096;4.012;2023-06-01T05:48:09;12.75;;;5.55;;
53056;SDS011;38940;50.096;4.012;2023-06-01T05:50:38;14.55;;;5.93;;
53056;SDS011;38940;50.096;4.012;2023-06-01T05:53:06;13.07;;;6.05;;
53056;SDS011;38940;50.096;4.012;2023-06-01T05:55:32;12.82;;;5.85;;
53056;SDS011;38940;50.096;4.012;2023-06-01T05:57:58;13.80;;;5.90;;
53056;SDS011;38940;50.096;4.012;2023-06-01T06:00:24;11.07;;;6.20;;
53056;SDS011;38940;50.096;4.012;2023-06-01T06:02:50;12.68;;;6.32;;
53056;SDS011;38940;50.096;4.012;2023-06-01T06:05:16;12.18;;;5.93;;
53056;SDS011;38940;50.096;4.012;2023-06-01T06:07:42;13.13;;;6.15;;
53056;SDS011;38940;50.096;4.012;2023-06-01T06:10:08;9.40;;;5.50;;
53056;SDS011;38940;50.096;4.012;2023-06-01T06:12:35;12.18;;;5.90;;
53056;SDS011;38940;50.096;4.012;2023-06-01T06:15:01;9.98;;;5.60;;
53056;SDS011;38940;50.096;4.012;2023-06-01T06:17:27;12.48;;;5.72;;
53056;SDS011;38940;50.096;4.012;2023-06-01T06:19:53;13.57;;;5.70;;
53056;SDS011;38940;50.096;4.012;2023-06-01T06:22:19;11.13;;;5.72;;
53056;SDS011;38940;50.096;4.012;2023-06-01T06:24:45;14.15;;;5.82;;
53056;SDS011;38940;50.096;4.012;2023-06-01T06:27:12;11.52;;;5.80;;
53056;SDS011;38940;50.096;4.012;2023-06-01T06:29:38;10.65;;;5.72;;
53056;SDS011;38940;50.096;4.012;2023-06-01T06:32:04;13.50;;;5.57;;
53056;SDS011;38940;50.096;4.012;2023-06-01T06:34:30;12.10;;;5.80;;
53056;SDS011;38940;50.096;4.012;2023-06-01T06:37:01;13.38;;;5.75;;
53056;SDS011;38940;50.096;4.012;2023-06-01T06:39:27;17.05;;;6.00;;
53056;SDS011;38940;50.096;4.012;2023-06-01T06:41:53;14.57;;;6.20;;
53056;SDS011;38940;50.096;4.012;2023-06-01T06:44:19;18.15;;;6.00;;
53056;SDS011;38940;50.096;4.012;2023-06-01T06:46:45;12.05;;;5.88;;
53056;SDS011;38940;50.096;4.012;2023-06-01T06:49:11;12.53;;;5.93;;
53056;SDS011;38940;50.096;4.012;2023-06-01T06:51:37;11.07;;;5.80;;
53056;SDS011;38940;50.096;4.012;2023-06-01T06:54:03;12.68;;;5.97;;
53056;SDS011;38940;50.096;4.012;2023-06-01T06:56:31;11.57;;;5.95;;
53056;SDS011;38940;50.096;4.012;2023-06-01T06:58:57;13.67;;;6.43;;
53056;SDS011;38940;50.096;4.012;2023-06-01T07:01:23;13.50;;;6.07;;
53056;SDS011;38940;50.096;4.012;2023-06-01T07:03:50;15.20;;;5.63;;
53056;SDS011;38940;50.096;4.012;2023-06-01T07:06:16;12.73;;;5.57;;
53056;SDS011;38940;50.096;4.012;2023-06-01T07:08:43;11.57;;;5.78;;
53056;SDS011;38940;50.096;4.012;2023-06-01T07:11:09;12.80;;;6.30;;
53056;SDS011;38940;50.096;4.012;2023-06-01T07:13:35;11.97;;;6.07;;
53056;SDS011;38940;50.096;4.012;2023-06-01T07:16:02;13.80;;;5.57;;
53056;SDS011;38940;50.096;4.012;2023-06-01T07:18:29;14.15;;;6.15;;
53056;SDS011;38940;50.096;4.012;2023-06-01T07:20:55;17.20;;;6.18;;
53056;SDS011;38940;50.096;4.012;2023-06-01T07:23:21;11.82;;;5.70;;
53056;SDS011;38940;50.096;4.012;2023-06-01T07:25:48;12.88;;;6.72;;
53056;SDS011;38940;50.096;4.012;2023-06-01T07:28:14;10.98;;;6.43;;
53056;SDS011;38940;50.096;4.012;2023-06-01T07:30:40;11.63;;;6.20;;
53056;SDS011;38940;50.096;4.012;2023-06-01T07:33:06;13.55;;;6.50;;
53056;SDS011;38940;50.096;4.012;2023-06-01T07:35:33;11.23;;;6.38;;
53056;SDS011;38940;50.096;4.012;2023-06-01T07:37:59;14.02;;;6.25;;
53056;SDS011;38940;50.096;4.012;2023-06-01T07:40:28;11.27;;;6.40;;
53056;SDS011;38940;50.096;4.012;2023-06-01T07:42:55;10.70;;;5.88;;
53056;SDS011;38940;50.096;4.012;2023-06-01T07:45:21;11.65;;;5.78;;
53056;SDS011;38940;50.096;4.012;2023-06-01T07:47:47;13.07;;;6.13;;
53056;SDS011;38940;50.096;4.012;2023-06-01T07:50:13;15.70;;;6.40;;
53056;SDS011;38940;50.096;4.012;2023-06-01T07:52:39;12.68;;;6.53;;
53056;SDS011;38940;50.096;4.012;2023-06-01T07:55:06;15.65;;;6.68;;
53056;SDS011;38940;50.096;4.012;2023-06-01T07:57:34;13.35;;;6.75;;
53056;SDS011;38940;50.096;4.012;2023-06-01T08:00:00;11.93;;;6.32;;
53056;SDS011;38940;50.096;4.012;2023-06-01T08:02:28;13.35;;;6.80;;
53056;SDS011;38940;50.096;4.012;2023-06-01T08:04:54;18.90;;;7.05;;
53056;SDS011;38940;50.096;4.012;2023-06-01T08:07:21;12.90;;;6.60;;
53056;SDS011;38940;50.096;4.012;2023-06-01T08:09:48;12.70;;;6.47;;
53056;SDS011;38940;50.096;4.012;2023-06-01T08:12:14;15.07;;;7.07;;
53056;SDS011;38940;50.096;4.012;2023-06-01T08:14:40;13.60;;;7.40;;
53056;SDS011;38940;50.096;4.012;2023-06-01T08:17:10;14.68;;;7.10;;
53056;SDS011;38940;50.096;4.012;2023-06-01T08:19:36;23.25;;;7.28;;
53056;SDS011;38940;50.096;4.012;2023-06-01T08:22:02;15.67;;;7.10;;
53056;SDS011;38940;50.096;4.012;2023-06-01T08:24:30;15.52;;;7.03;;
53056;SDS011;38940;50.096;4.012;2023-06-01T08:26:57;20.25;;;7.88;;
53056;SDS011;38940;50.096;4.012;2023-06-01T08:29:23;17.50;;;7.07;;
53056;SDS011;38940;50.096;4.012;2023-06-01T08:31:49;19.55;;;7.00;;
53056;SDS011;38940;50.096;4.012;2023-06-01T08:34:15;13.65;;;7.07;;
53056;SDS011;38940;50.096;4.012;2023-06-01T08:36:41;18.08;;;7.03;;
53056;SDS011;38940;50.096;4.012;2023-06-01T08:39:23;20.10;;;7.18;;
53056;SDS011;38940;50.096;4.012;2023-06-01T08:44:16;19.23;;;7.25;;
53056;SDS011;38940;50.096;4.012;2023-06-01T08:46:43;18.20;;;6.82;;
53056;SDS011;38940;50.096;4.012;2023-06-01T08:49:09;15.18;;;7.25;;
53056;SDS011;38940;50.096;4.012;2023-06-01T08:51:37;17.02;;;7.97;;
53056;SDS011;38940;50.096;4.012;2023-06-01T08:54:03;15.43;;;7.00;;
53056;SDS011;38940;50.096;4.012;2023-06-01T08:56:29;15.52;;;7.35;;
53056;SDS011;38940;50.096;4.012;2023-06-01T08:58:55;15.30;;;7.50;;
53056;SDS011;38940;50.096;4.012;2023-06-01T09:01:22;14.98;;;7.53;;
53056;SDS011;38940;50.096;4.012;2023-06-01T09:03:49;18.02;;;7.95;;
53056;SDS011;38940;50.096;4.012;2023-06-01T09:06:15;18.00;;;7.78;;
53056;SDS011;38940;50.096;4.012;2023-06-01T09:08:41;15.32;;;7.20;;
53056;SDS011;38940;50.096;4.012;2023-06-01T09:11:07;17.17;;;7.30;;
53056;SDS011;38940;50.096;4.012;2023-06-01T09:13:34;16.02;;;7.72;;
53056;SDS011;38940;50.096;4.012;2023-06-01T09:16:01;19.13;;;7.88;;
53056;SDS011;38940;50.096;4.012;2023-06-01T09:18:27;18.23;;;7.85;;
53056;SDS011;38940;50.096;4.012;2023-06-01T09:20:53;16.50;;;7.88;;
53056;SDS011;38940;50.096;4.012;2023-06-01T09:23:25;14.90;;;7.07;;
53056;SDS011;38940;50.096;4.012;2023-06-01T09:28:59;14.77;;;7.70;;
53056;SDS011;38940;50.096;4.012;2023-06-01T09:31:41;18.13;;;7.25;;
53056;SDS011;38940;50.096;4.012;2023-06-01T09:34:11;20.73;;;8.60;;
53056;SDS011;38940;50.096;4.012;2023-06-01T09:36:37;16.02;;;8.50;;
53056;SDS011;38940;50.096;4.012;2023-06-01T09:39:07;14.50;;;8.20;;
53056;SDS011;38940;50.096;4.012;2023-06-01T09:41:46;17.58;;;8.43;;
53056;SDS011;38940;50.096;4.012;2023-06-01T09:44:13;17.95;;;8.50;;
53056;SDS011;38940;50.096;4.012;2023-06-01T09:46:49;18.17;;;8.90;;
53056;SDS011;38940;50.096;4.012;2023-06-01T09:49:34;19.20;;;9.35;;
53056;SDS011;38940;50.096;4.012;2023-06-01T09:54:34;19.77;;;8.75;;
53056;SDS011;38940;50.096;4.012;2023-06-01T09:57:01;21.50;;;8.93;;
53056;SDS011;38940;50.096;4.012;2023-06-01T09:59:28;17.40;;;9.48;;
53056;SDS011;38940;50.096;4.012;2023-06-01T10:01:55;19.17;;;10.30;;
53056;SDS011;38940;50.096;4.012;2023-06-01T10:04:23;22.90;;;10.43;;
53056;SDS011;38940;50.096;4.012;2023-06-01T10:06:50;18.27;;;10.07;;
53056;SDS011;38940;50.096;4.012;2023-06-01T10:09:16;20.45;;;10.77;;
53056;SDS011;38940;50.096;4.012;2023-06-01T10:11:45;16.85;;;9.75;;
53056;SDS011;38940;50.096;4.012;2023-06-01T10:14:11;22.45;;;11.07;;
53056;SDS011;38940;50.096;4.012;2023-06-01T10:16:37;21.63;;;12.15;;
53056;SDS011;38940;50.096;4.012;2023-06-01T10:19:05;24.73;;;11.10;;
53056;SDS011;38940;50.096;4.012;2023-06-01T10:21:32;23.40;;;12.60;;
53056;SDS011;38940;50.096;4.012;2023-06-01T10:23:59;18.35;;;9.95;;
53056;SDS011;38940;50.096;4.012;2023-06-01T10:26:25;24.15;;;10.52;;
53056;SDS011;38940;50.096;4.012;2023-06-01T10:28:53;18.00;;;10.43;;
53056;SDS011;38940;50.096;4.012;2023-06-01T10:33:57;19.42;;;9.85;;
53056;SDS011;38940;50.096;4.012;2023-06-01T10:36:23;22.65;;;9.73;;
53056;SDS011;38940;50.096;4.012;2023-06-01T10:39:14;16.70;;;9.70;;
53056;SDS011;38940;50.096;4.012;2023-06-01T10:41:37;19.58;;;10.63;;
53056;SDS011;38940;50.096;4.012;2023-06-01T10:44:03;17.05;;;10.30;;
53056;SDS011;38940;50.096;4.012;2023-06-01T10:46:36;21.38;;;11.25;;
53056;SDS011;38940;50.096;4.012;2023-06-01T10:49:03;22.90;;;10.88;;
53056;SDS011;38940;50.096;4.012;2023-06-01T10:51:29;18.88;;;10.77;;
53056;SDS011;38940;50.096;4.012;2023-06-01T10:54:23;24.40;;;11.30;;
53056;SDS011;38940;50.096;4.012;2023-06-01T10:56:41;22.57;;;11.20;;
53056;SDS011;38940;50.096;4.012;2023-06-01T11:01:37;20.13;;;11.23;;
53056;SDS011;38940;50.096;4.012;2023-06-01T11:04:03;20.88;;;11.75;;
53056;SDS011;38940;50.096;4.012;2023-06-01T11:06:48;20.52;;;10.70;;
53056;SDS011;38940;50.096;4.012;2023-06-01T11:09:14;20.65;;;11.30;;
53056;SDS011;38940;50.096;4.012;2023-06-01T11:14:15;19.70;;;11.63;;
53056;SDS011;38940;50.096;4.012;2023-06-01T11:16:42;15.63;;;8.93;;
53056;SDS011;38940;50.096;4.012;2023-06-01T11:19:09;19.67;;;8.13;;
53056;SDS011;38940;50.096;4.012;2023-06-01T11:24:08;19.58;;;10.25;;
53056;SDS011;38940;50.096;4.012;2023-06-01T11:26:36;17.63;;;10.35;;
53056;SDS011;38940;50.096;4.012;2023-06-01T11:29:06;25.23;;;10.82;;
53056;SDS011;38940;50.096;4.012;2023-06-01T11:31:36;19.10;;;10.80;;
53056;SDS011;38940;50.096;4.012;2023-06-01T11:34:02;18.30;;;10.03;;
53056;SDS011;38940;50.096;4.012;2023-06-01T11:36:29;17.45;;;10.45;;
53056;SDS011;38940;50.096;4.012;2023-06-01T11:38:55;18.00;;;9.33;;
53056;SDS011;38940;50.096;4.012;2023-06-01T11:41:22;18.63;;;10.23;;
53056;SDS011;38940;50.096;4.012;2023-06-01T11:43:57;18.00;;;10.10;;
53056;SDS011;38940;50.096;4.012;2023-06-01T11:46:24;16.40;;;9.27;;
53056;SDS011;38940;50.096;4.012;2023-06-01T11:48:58;20.13;;;10.88;;
53056;SDS011;38940;50.096;4.012;2023-06-01T11:51:30;18.15;;;10.07;;
53056;SDS011;38940;50.096;4.012;2023-06-01T11:53:57;20.40;;;10.73;;
53056;SDS011;38940;50.096;4.012;2023-06-01T11:56:32;20.60;;;10.63;;
53056;SDS011;38940;50.096;4.012;2023-06-01T11:58:59;18.58;;;10.68;;
53056;SDS011;38940;50.096;4.012;2023-06-01T12:01:26;24.42;;;11.35;;
53056;SDS011;38940;50.096;4.012;2023-06-01T12:03:52;20.10;;;9.73;;
53056;SDS011;38940;50.096;4.012;2023-06-01T12:06:20;16.57;;;9.20;;
53056;SDS011;38940;50.096;4.012;2023-06-01T12:08:47;17.87;;;10.10;;
53056;SDS011;38940;50.096;4.012;2023-06-01T12:11:13;16.67;;;8.57;;
53056;SDS011;38940;50.096;4.012;2023-06-01T12:13:41;14.38;;;8.45;;
53056;SDS011;38940;50.096;4.012;2023-06-01T12:16:07;17.58;;;8.55;;
53056;SDS011;38940;50.096;4.012;2023-06-01T12:18:33;17.08;;;9.10;;
53056;SDS011;38940;50.096;4.012;2023-06-01T12:20:59;14.65;;;8.15;;
53056;SDS011;38940;50.096;4.012;2023-06-01T12:23:33;17.08;;;7.70;;
53056;SDS011;38940;50.096;4.012;2023-06-01T12:25:59;14.95;;;7.75;;
53056;SDS011;38940;50.096;4.012;2023-06-01T12:28:26;13.80;;;7.90;;
53056;SDS011;38940;50.096;4.012;2023-06-01T12:33:53;15.55;;;5.57;;
53056;SDS011;38940;50.096;4.012;2023-06-01T12:36:35;11.80;;;6.00;;
53056;SDS011;38940;50.096;4.012;2023-06-01T12:39:03;12.57;;;5.40;;
53056;SDS011;38940;50.096;4.012;2023-06-01T12:41:30;16.00;;;5.67;;
53056;SDS011;38940;50.096;4.012;2023-06-01T12:43:56;10.70;;;5.10;;
53056;SDS011;38940;50.096;4.012;2023-06-01T12:46:24;8.30;;;4.63;;
53056;SDS011;38940;50.096;4.012;2023-06-01T12:48:51;11.27;;;4.30;;
53056;SDS011;38940;50.096;4.012;2023-06-01T12:51:18;9.50;;;3.95;;
53056;SDS011;38940;50.096;4.012;2023-06-01T12:53:45;7.68;;;3.38;;
53056;SDS011;38940;50.096;4.012;2023-06-01T12:56:11;8.25;;;3.80;;
53056;SDS011;38940;50.096;4.012;2023-06-01T12:58:38;8.15;;;4.70;;
53056;SDS011;38940;50.096;4.012;2023-06-01T13:01:04;10.57;;;4.88;;
53056;SDS011;38940;50.096;4.012;2023-06-01T13:03:30;9.13;;;4.00;;
53056;SDS011;38940;50.096;4.012;2023-06-01T13:05:57;7.93;;;3.97;;
53056;SDS011;38940;50.096;4.012;2023-06-01T13:08:24;9.18;;;3.60;;
53056;SDS011;38940;50.096;4.012;2023-06-01T13:10:51;8.90;;;3.60;;
53056;SDS011;38940;50.096;4.012;2023-06-01T13:13:17;4.78;;;2.80;;
53056;SDS011;38940;50.096;4.012;2023-06-01T13:15:43;4.22;;;2.40;;
53056;SDS011;38940;50.096;4.012;2023-06-01T13:18:09;5.13;;;3.30;;
53056;SDS011;38940;50.096;4.012;2023-06-01T13:20:35;9.13;;;2.80;;
53056;SDS011;38940;50.096;4.012;2023-06-01T13:23:02;9.88;;;3.10;;
53056;SDS011;38940;50.096;4.012;2023-06-01T13:25:29;21.35;;;5.57;;
53056;SDS011;38940;50.096;4.012;2023-06-01T13:27:55;10.93;;;3.83;;
53056;SDS011;38940;50.096;4.012;2023-06-01T13:30:21;13.07;;;3.55;;
53056;SDS011;38940;50.096;4.012;2023-06-01T13:32:47;10.10;;;3.13;;
53056;SDS011;38940;50.096;4.012;2023-06-01T13:35:14;12.73;;;3.40;;
53056;SDS011;38940;50.096;4.012;2023-06-01T13:37:40;5.88;;;3.00;;
53056;SDS011;38940;50.096;4.012;2023-06-01T13:40:06;6.03;;;3.00;;
53056;SDS011;38940;50.096;4.012;2023-06-01T13:42:32;9.18;;;3.63;;
53056;SDS011;38940;50.096;4.012;2023-06-01T13:44:58;7.97;;;3.00;;
53056;SDS011;38940;50.096;4.012;2023-06-01T13:47:24;7.63;;;2.83;;
53056;SDS011;38940;50.096;4.012;2023-06-01T13:49:51;8.57;;;2.90;;
53056;SDS011;38940;50.096;4.012;2023-06-01T13:52:17;5.63;;;2.33;;
53056;SDS011;38940;50.096;4.012;2023-06-01T13:54:43;9.90;;;2.78;;
53056;SDS011;38940;50.096;4.012;2023-06-01T13:57:09;6.53;;;2.78;;
53056;SDS011;38940;50.096;4.012;2023-06-01T13:59:35;9.87;;;2.90;;
53056;SDS011;38940;50.096;4.012;2023-06-01T14:02:02;4.60;;;2.53;;
53056;SDS011;38940;50.096;4.012;2023-06-01T14:04:31;6.97;;;2.85;;
53056;SDS011;38940;50.096;4.012;2023-06-01T14:06:57;6.60;;;3.30;;
53056;SDS011;38940;50.096;4.012;2023-06-01T14:09:23;5.28;;;2.88;;
53056;SDS011;38940;50.096;4.012;2023-06-01T14:11:49;8.10;;;2.60;;
53056;SDS011;38940;50.096;4.012;2023-06-01T14:14:15;6.47;;;3.13;;
53056;SDS011;38940;50.096;4.012;2023-06-01T14:16:42;6.25;;;2.72;;
53056;SDS011;38940;50.096;4.012;2023-06-01T14:19:08;7.17;;;3.07;;
53056;SDS011;38940;50.096;4.012;2023-06-01T14:21:34;7.57;;;3.10;;
53056;SDS011;38940;50.096;4.012;2023-06-01T14:24:01;12.83;;;3.50;;
53056;SDS011;38940;50.096;4.012;2023-06-01T14:26:27;10.70;;;3.83;;
53056;SDS011;38940;50.096;4.012;2023-06-01T14:28:53;11.65;;;3.80;;
53056;SDS011;38940;50.096;4.012;2023-06-01T14:31:19;9.65;;;3.75;;
53056;SDS011;38940;50.096;4.012;2023-06-01T14:33:45;8.37;;;3.37;;
53056;SDS011;38940;50.096;4.012;2023-06-01T14:36:12;6.32;;;3.40;;
53056;SDS011;38940;50.096;4.012;2023-06-01T14:38:38;7.30;;;3.50;;
53056;SDS011;38940;50.096;4.012;2023-06-01T14:41:04;9.18;;;3.85;;
53056;SDS011;38940;50.096;4.012;2023-06-01T14:43:30;7.50;;;3.50;;
53056;SDS011;38940;50.096;4.012;2023-06-01T14:45:56;9.43;;;3.92;;
53056;SDS011;38940;50.096;4.012;2023-06-01T14:48:22;7.82;;;3.65;;
53056;SDS011;38940;50.096;4.012;2023-06-01T14:50:48;12.68;;;4.35;;
53056;SDS011;38940;50.096;4.012;2023-06-01T14:53:15;5.38;;;3.15;;
53056;SDS011;38940;50.096;4.012;2023-06-01T14:55:41;10.52;;;3.95;;
53056;SDS011;38940;50.096;4.012;2023-06-01T14:58:07;10.23;;;4.30;;
53056;SDS011;38940;50.096;4.012;2023-06-01T15:00:34;8.73;;;3.85;;
53056;SDS011;38940;50.096;4.012;2023-06-01T15:03:00;12.43;;;4.30;;
53056;SDS011;38940;50.096;4.012;2023-06-01T15:05:26;7.97;;;4.07;;
53056;SDS011;38940;50.096;4.012;2023-06-01T15:07:52;9.95;;;3.95;;